RYR9KY LKPR-LZKZ
Flight info
| Callsign | RYR9KY |
|---|---|
| Flight time | 0h 52m |
| Altitude | 29000 |
| Route | VOZ DCT LIKSA DCT UPLAV DCT MAKAL DCT TAKOS |
| Aircraft | B738/M-SDE2E3FGHIRWXY/LB1 |
Departure
| Time | 2026-04-25 08:19 |
|---|---|
| Airport | Václav Havel Airport Prague (LKPR) |
Arrival
| Time | 2026-04-25 09:12 |
|---|---|
| Airport | Košice International Airport (LZKZ) |
| Time | Latitude | Longitude | Altitude | Speed | Heading |
|---|---|---|---|---|---|
| 2026-04-25 07:52 | 50.10411 | 14.26636 | 1173 ft | 0 kts | 34° |
| 2026-04-25 08:10 | 50.10399 | 14.26622 | 1170 ft | 4 kts | 38° |
| 2026-04-25 08:11 | 50.10384 | 14.26597 | 1169 ft | 4 kts | 95° |
| 2026-04-25 08:11 | 50.10385 | 14.26586 | 1171 ft | 1 kts | 124° |
| 2026-04-25 08:14 | 50.10383 | 14.26590 | 1169 ft | 1 kts | 124° |
| 2026-04-25 08:14 | 50.10374 | 14.26612 | 1171 ft | 4 kts | 124° |
| 2026-04-25 08:14 | 50.10345 | 14.26626 | 1172 ft | 5 kts | 203° |
| 2026-04-25 08:15 | 50.10307 | 14.26582 | 1170 ft | 9 kts | 217° |
| 2026-04-25 08:15 | 50.10249 | 14.26529 | 1175 ft | 10 kts | 187° |
| 2026-04-25 08:15 | 50.10196 | 14.26606 | 1175 ft | 13 kts | 126° |
| 2026-04-25 08:15 | 50.10123 | 14.26759 | 1177 ft | 21 kts | 128° |
| 2026-04-25 08:16 | 50.10023 | 14.26963 | 1193 ft | 26 kts | 127° |
| 2026-04-25 08:16 | 50.09915 | 14.27186 | 1200 ft | 25 kts | 127° |
| 2026-04-25 08:16 | 50.09806 | 14.27385 | 1203 ft | 23 kts | 135° |
| 2026-04-25 08:16 | 50.09697 | 14.27551 | 1205 ft | 20 kts | 135° |
| 2026-04-25 08:17 | 50.09600 | 14.27702 | 1210 ft | 19 kts | 135° |
| 2026-04-25 08:17 | 50.09505 | 14.27848 | 1213 ft | 19 kts | 135° |
| 2026-04-25 08:17 | 50.09414 | 14.27989 | 1214 ft | 18 kts | 135° |
| 2026-04-25 08:17 | 50.09321 | 14.28130 | 1214 ft | 19 kts | 136° |
| 2026-04-25 08:18 | 50.09239 | 14.28254 | 1211 ft | 14 kts | 139° |
| 2026-04-25 08:18 | 50.09145 | 14.28264 | 1210 ft | 15 kts | 213° |
| 2026-04-25 08:18 | 50.09090 | 14.28129 | 1208 ft | 16 kts | 265° |
| 2026-04-25 08:18 | 50.09137 | 14.27975 | 1210 ft | 16 kts | 307° |
| 2026-04-25 08:19 | 50.09274 | 14.27694 | 1212 ft | 63 kts | 307° |
| 2026-04-25 08:19 | 50.09674 | 14.26865 | 1207 ft | 126 kts | 307° |
| 2026-04-25 08:19 | 50.10295 | 14.25594 | 1407 ft | 158 kts | 308° |
| 2026-04-25 08:19 | 50.11004 | 14.24220 | 2086 ft | 165 kts | 307° |
| 2026-04-25 08:20 | 50.11713 | 14.22840 | 2964 ft | 160 kts | 308° |
| 2026-04-25 08:20 | 50.12399 | 14.21445 | 3729 ft | 163 kts | 311° |
| 2026-04-25 08:20 | 50.13123 | 14.19984 | 4318 ft | 179 kts | 306° |
| 2026-04-25 08:20 | 50.13892 | 14.18290 | 4540 ft | 203 kts | 307° |
| 2026-04-25 08:21 | 50.14763 | 14.16416 | 4758 ft | 221 kts | 307° |
| 2026-04-25 08:21 | 50.15691 | 14.14452 | 5236 ft | 228 kts | 307° |
| 2026-04-25 08:21 | 50.16630 | 14.12484 | 5850 ft | 231 kts | 307° |
| 2026-04-25 08:21 | 50.17619 | 14.10407 | 6179 ft | 248 kts | 304° |
| 2026-04-25 08:22 | 50.18243 | 14.07856 | 6723 ft | 260 kts | 277° |
| 2026-04-25 08:22 | 50.18000 | 14.05046 | 7528 ft | 267 kts | 251° |
| 2026-04-25 08:22 | 50.16912 | 14.02658 | 8349 ft | 277 kts | 226° |
| 2026-04-25 08:22 | 50.15280 | 14.00977 | 9092 ft | 290 kts | 204° |
| 2026-04-25 08:23 | 50.13253 | 14.00560 | 9846 ft | 302 kts | 177° |
| 2026-04-25 08:23 | 50.11207 | 14.01514 | 10454 ft | 317 kts | 154° |
| 2026-04-25 08:23 | 50.09372 | 14.03633 | 10686 ft | 340 kts | 139° |
| 2026-04-25 08:23 | 50.07628 | 14.06205 | 11238 ft | 349 kts | 136° |
| 2026-04-25 08:24 | 50.05897 | 14.08881 | 11995 ft | 352 kts | 136° |
| 2026-04-25 08:24 | 50.04162 | 14.11583 | 12788 ft | 355 kts | 136° |
| 2026-04-25 08:24 | 50.02402 | 14.14305 | 13572 ft | 358 kts | 136° |
| 2026-04-25 08:24 | 50.00614 | 14.17046 | 14270 ft | 363 kts | 136° |
| 2026-04-25 08:25 | 49.98804 | 14.19801 | 15010 ft | 366 kts | 137° |
| 2026-04-25 08:25 | 49.96968 | 14.22576 | 15706 ft | 371 kts | 137° |
| 2026-04-25 08:25 | 49.95100 | 14.25387 | 16360 ft | 377 kts | 137° |
| 2026-04-25 08:25 | 49.93200 | 14.28239 | 17028 ft | 382 kts | 138° |
| 2026-04-25 08:26 | 49.91274 | 14.31125 | 17724 ft | 387 kts | 138° |
| 2026-04-25 08:26 | 49.89324 | 14.34042 | 18391 ft | 392 kts | 138° |
| 2026-04-25 08:26 | 49.87348 | 14.36994 | 18969 ft | 397 kts | 139° |
| 2026-04-25 08:26 | 49.85348 | 14.39978 | 19562 ft | 401 kts | 139° |
| 2026-04-25 08:27 | 49.83323 | 14.42997 | 20134 ft | 406 kts | 139° |
| 2026-04-25 08:27 | 49.81286 | 14.46064 | 20732 ft | 411 kts | 136° |
| 2026-04-25 08:27 | 49.79519 | 14.49590 | 21304 ft | 419 kts | 122° |
| 2026-04-25 08:27 | 49.78248 | 14.53670 | 21862 ft | 425 kts | 110° |
| 2026-04-25 08:28 | 49.77390 | 14.58090 | 22415 ft | 430 kts | 105° |
| 2026-04-25 08:28 | 49.76600 | 14.62582 | 22951 ft | 435 kts | 105° |
| 2026-04-25 08:28 | 49.75805 | 14.67126 | 23462 ft | 440 kts | 105° |
| 2026-04-25 08:28 | 49.74995 | 14.71714 | 23948 ft | 444 kts | 105° |
| 2026-04-25 08:29 | 49.74173 | 14.76323 | 24418 ft | 447 kts | 105° |
| 2026-04-25 08:29 | 49.73334 | 14.80972 | 24921 ft | 449 kts | 106° |
| 2026-04-25 08:29 | 49.72490 | 14.85611 | 25513 ft | 448 kts | 106° |
| 2026-04-25 08:29 | 49.71643 | 14.90238 | 26121 ft | 446 kts | 106° |
| 2026-04-25 08:30 | 49.70796 | 14.94839 | 26701 ft | 446 kts | 106° |
| 2026-04-25 08:30 | 49.69953 | 14.99405 | 27233 ft | 447 kts | 107° |
| 2026-04-25 08:30 | 49.69090 | 15.04072 | 27821 ft | 447 kts | 106° |
| 2026-04-25 08:30 | 49.68245 | 15.08627 | 28367 ft | 447 kts | 107° |
| 2026-04-25 08:31 | 49.67388 | 15.13236 | 28950 ft | 446 kts | 107° |
| 2026-04-25 08:31 | 49.65658 | 15.22509 | 29048 ft | 449 kts | 107° |
| 2026-04-25 08:32 | 49.63938 | 15.31690 | 29038 ft | 444 kts | 107° |
| 2026-04-25 08:32 | 49.62211 | 15.40858 | 29061 ft | 446 kts | 107° |
| 2026-04-25 08:33 | 49.60472 | 15.50049 | 29060 ft | 447 kts | 107° |
| 2026-04-25 08:33 | 49.58726 | 15.59230 | 29042 ft | 446 kts | 107° |
| 2026-04-25 08:34 | 49.56974 | 15.68395 | 29046 ft | 445 kts | 107° |
| 2026-04-25 08:34 | 49.55220 | 15.77531 | 29041 ft | 444 kts | 107° |
| 2026-04-25 08:35 | 49.53463 | 15.86636 | 29036 ft | 443 kts | 107° |
| 2026-04-25 08:35 | 49.51701 | 15.95723 | 29040 ft | 442 kts | 107° |
| 2026-04-25 08:36 | 49.49935 | 16.04786 | 29042 ft | 442 kts | 107° |
| 2026-04-25 08:36 | 49.48164 | 16.13838 | 29031 ft | 442 kts | 107° |
| 2026-04-25 08:37 | 49.46393 | 16.22842 | 29029 ft | 443 kts | 107° |
| 2026-04-25 08:37 | 49.44602 | 16.31908 | 29027 ft | 443 kts | 107° |
| 2026-04-25 08:38 | 49.42805 | 16.40965 | 29030 ft | 443 kts | 107° |
| 2026-04-25 08:38 | 49.40999 | 16.50020 | 29026 ft | 443 kts | 107° |
| 2026-04-25 08:39 | 49.39186 | 16.59067 | 29032 ft | 443 kts | 107° |
| 2026-04-25 08:39 | 49.37369 | 16.68096 | 29036 ft | 443 kts | 107° |
| 2026-04-25 08:40 | 49.35545 | 16.77118 | 29043 ft | 443 kts | 107° |
| 2026-04-25 08:40 | 49.33711 | 16.86144 | 29034 ft | 443 kts | 107° |
| 2026-04-25 08:41 | 49.31872 | 16.95151 | 29040 ft | 442 kts | 107° |
| 2026-04-25 08:41 | 49.30032 | 17.04130 | 29034 ft | 440 kts | 107° |
| 2026-04-25 08:42 | 49.28189 | 17.13082 | 29052 ft | 441 kts | 107° |
| 2026-04-25 08:42 | 49.26334 | 17.22049 | 29051 ft | 442 kts | 107° |
| 2026-04-25 08:43 | 49.24468 | 17.31033 | 29049 ft | 443 kts | 107° |
| 2026-04-25 08:43 | 49.22607 | 17.39947 | 29047 ft | 443 kts | 107° |
| 2026-04-25 08:44 | 49.20712 | 17.48987 | 29067 ft | 443 kts | 107° |
| 2026-04-25 08:44 | 49.18837 | 17.57893 | 29074 ft | 443 kts | 107° |
| 2026-04-25 08:45 | 49.16944 | 17.66843 | 29062 ft | 442 kts | 107° |
| 2026-04-25 08:45 | 49.15047 | 17.75773 | 29065 ft | 442 kts | 107° |
| 2026-04-25 08:46 | 49.13144 | 17.84688 | 29056 ft | 441 kts | 108° |
| 2026-04-25 08:46 | 49.11238 | 17.93583 | 29062 ft | 441 kts | 107° |
| 2026-04-25 08:47 | 49.09325 | 18.02470 | 29042 ft | 441 kts | 107° |
| 2026-04-25 08:47 | 49.07405 | 18.11354 | 29035 ft | 441 kts | 107° |
| 2026-04-25 08:48 | 49.05479 | 18.20225 | 29046 ft | 441 kts | 108° |
| 2026-04-25 08:48 | 49.03545 | 18.29096 | 29048 ft | 441 kts | 108° |
| 2026-04-25 08:49 | 49.01600 | 18.37976 | 29025 ft | 442 kts | 107° |
| 2026-04-25 08:49 | 48.99651 | 18.46840 | 29045 ft | 442 kts | 108° |
| 2026-04-25 08:50 | 48.97705 | 18.55653 | 29040 ft | 442 kts | 108° |
| 2026-04-25 08:50 | 48.96726 | 18.60071 | 28930 ft | 439 kts | 108° |
| 2026-04-25 08:50 | 48.95752 | 18.64459 | 28621 ft | 434 kts | 108° |
| 2026-04-25 08:50 | 48.94789 | 18.68782 | 28265 ft | 430 kts | 108° |
| 2026-04-25 08:51 | 48.93837 | 18.73059 | 27935 ft | 424 kts | 108° |
| 2026-04-25 08:51 | 48.92891 | 18.77289 | 27560 ft | 422 kts | 108° |
| 2026-04-25 08:51 | 48.91950 | 18.81489 | 27184 ft | 419 kts | 108° |
| 2026-04-25 08:51 | 48.91011 | 18.85673 | 26825 ft | 416 kts | 108° |
| 2026-04-25 08:52 | 48.90080 | 18.89820 | 26461 ft | 414 kts | 108° |
| 2026-04-25 08:52 | 48.89151 | 18.93945 | 26105 ft | 411 kts | 108° |
| 2026-04-25 08:52 | 48.88225 | 18.98053 | 25725 ft | 409 kts | 108° |
| 2026-04-25 08:52 | 48.87303 | 19.02131 | 25392 ft | 408 kts | 108° |
| 2026-04-25 08:53 | 48.86385 | 19.06188 | 25038 ft | 406 kts | 109° |
| 2026-04-25 08:53 | 48.85467 | 19.10230 | 24669 ft | 404 kts | 108° |
| 2026-04-25 08:53 | 48.84555 | 19.14247 | 24331 ft | 402 kts | 108° |
| 2026-04-25 08:53 | 48.83643 | 19.18248 | 23969 ft | 401 kts | 108° |
| 2026-04-25 08:54 | 48.82735 | 19.22228 | 23625 ft | 399 kts | 109° |
| 2026-04-25 08:54 | 48.81827 | 19.26198 | 23218 ft | 397 kts | 109° |
| 2026-04-25 08:54 | 48.80923 | 19.30147 | 22832 ft | 395 kts | 109° |
| 2026-04-25 08:54 | 48.80023 | 19.34070 | 22463 ft | 392 kts | 109° |
| 2026-04-25 08:55 | 48.79128 | 19.37959 | 22100 ft | 390 kts | 109° |
| 2026-04-25 08:55 | 48.78238 | 19.41825 | 21750 ft | 387 kts | 109° |
| 2026-04-25 08:55 | 48.77352 | 19.45666 | 21402 ft | 385 kts | 109° |
| 2026-04-25 08:55 | 48.76470 | 19.49484 | 21056 ft | 382 kts | 109° |
| 2026-04-25 08:56 | 48.75598 | 19.53251 | 20701 ft | 378 kts | 109° |
| 2026-04-25 08:56 | 48.75023 | 19.55732 | 20500 ft | 375 kts | 109° |
| 2026-04-25 08:56 | 48.74157 | 19.59458 | 20153 ft | 373 kts | 109° |
| 2026-04-25 08:56 | 48.73296 | 19.63158 | 19831 ft | 371 kts | 109° |
| 2026-04-25 08:57 | 48.72440 | 19.66835 | 19501 ft | 370 kts | 109° |
| 2026-04-25 08:57 | 48.71585 | 19.70501 | 19155 ft | 368 kts | 109° |
| 2026-04-25 08:57 | 48.70731 | 19.74154 | 18818 ft | 367 kts | 109° |
| 2026-04-25 08:57 | 48.69881 | 19.77786 | 18491 ft | 365 kts | 109° |
| 2026-04-25 08:58 | 48.69032 | 19.81402 | 18128 ft | 364 kts | 109° |
| 2026-04-25 08:58 | 48.68186 | 19.85009 | 17774 ft | 362 kts | 109° |
| 2026-04-25 08:58 | 48.67344 | 19.88588 | 17397 ft | 359 kts | 109° |
| 2026-04-25 08:58 | 48.66511 | 19.92121 | 17076 ft | 355 kts | 109° |
| 2026-04-25 08:59 | 48.65685 | 19.95624 | 16753 ft | 352 kts | 109° |
| 2026-04-25 08:59 | 48.64864 | 19.99098 | 16439 ft | 350 kts | 109° |
| 2026-04-25 08:59 | 48.64045 | 20.02546 | 16151 ft | 347 kts | 109° |
| 2026-04-25 08:59 | 48.63219 | 20.06019 | 15329 ft | 359 kts | 108° |
| 2026-04-25 09:00 | 48.62355 | 20.09656 | 14527 ft | 372 kts | 108° |
| 2026-04-25 09:00 | 48.61477 | 20.13355 | 14058 ft | 373 kts | 108° |
| 2026-04-25 09:00 | 48.60605 | 20.17023 | 13701 ft | 368 kts | 108° |
| 2026-04-25 09:00 | 48.59741 | 20.20646 | 13324 ft | 364 kts | 108° |
| 2026-04-25 09:01 | 48.58895 | 20.24187 | 12885 ft | 362 kts | 108° |
| 2026-04-25 09:01 | 48.58094 | 20.27771 | 12441 ft | 359 kts | 102° |
| 2026-04-25 09:01 | 48.57614 | 20.31455 | 12003 ft | 355 kts | 96° |
| 2026-04-25 09:01 | 48.57277 | 20.35137 | 11646 ft | 352 kts | 95° |
| 2026-04-25 09:02 | 48.56965 | 20.38783 | 11270 ft | 349 kts | 95° |
| 2026-04-25 09:02 | 48.56642 | 20.42405 | 10931 ft | 347 kts | 95° |
| 2026-04-25 09:02 | 48.56299 | 20.45982 | 10571 ft | 340 kts | 96° |
| 2026-04-25 09:02 | 48.55954 | 20.49489 | 10238 ft | 337 kts | 96° |
| 2026-04-25 09:03 | 48.55602 | 20.52961 | 10048 ft | 330 kts | 96° |
| 2026-04-25 09:03 | 48.55254 | 20.56346 | 9912 ft | 320 kts | 96° |
| 2026-04-25 09:03 | 48.54920 | 20.59584 | 9915 ft | 307 kts | 96° |
| 2026-04-25 09:03 | 48.54593 | 20.62712 | 9828 ft | 297 kts | 96° |
| 2026-04-25 09:04 | 48.54273 | 20.65762 | 9431 ft | 293 kts | 96° |
| 2026-04-25 09:04 | 48.53955 | 20.68797 | 8975 ft | 292 kts | 96° |
| 2026-04-25 09:04 | 48.53642 | 20.71807 | 8580 ft | 288 kts | 96° |
| 2026-04-25 09:04 | 48.53334 | 20.74760 | 8164 ft | 285 kts | 96° |
| 2026-04-25 09:05 | 48.53026 | 20.77704 | 7735 ft | 283 kts | 97° |
| 2026-04-25 09:05 | 48.52722 | 20.80621 | 7372 ft | 279 kts | 97° |
| 2026-04-25 09:05 | 48.52420 | 20.83508 | 7113 ft | 280 kts | 98° |
| 2026-04-25 09:05 | 48.52117 | 20.86417 | 6775 ft | 279 kts | 98° |
| 2026-04-25 09:06 | 48.51812 | 20.89273 | 6482 ft | 273 kts | 98° |
| 2026-04-25 09:06 | 48.51522 | 20.92036 | 6175 ft | 268 kts | 98° |
| 2026-04-25 09:06 | 48.51234 | 20.94799 | 5902 ft | 267 kts | 99° |
| 2026-04-25 09:06 | 48.50937 | 20.97609 | 5628 ft | 270 kts | 99° |
| 2026-04-25 09:07 | 48.50644 | 21.00376 | 5376 ft | 272 kts | 99° |
| 2026-04-25 09:07 | 48.50339 | 21.03221 | 5067 ft | 275 kts | 101° |
| 2026-04-25 09:07 | 48.49946 | 21.06019 | 4749 ft | 269 kts | 104° |
| 2026-04-25 09:07 | 48.49520 | 21.08729 | 4482 ft | 264 kts | 105° |
| 2026-04-25 09:08 | 48.49099 | 21.11389 | 4164 ft | 257 kts | 105° |
| 2026-04-25 09:08 | 48.48703 | 21.13963 | 3926 ft | 247 kts | 103° |
| 2026-04-25 09:08 | 48.48732 | 21.16482 | 3664 ft | 241 kts | 67° |
| 2026-04-25 09:08 | 48.49794 | 21.18329 | 3632 ft | 237 kts | 28° |
| 2026-04-25 09:09 | 48.51355 | 21.19036 | 3496 ft | 235 kts | 8° |
| 2026-04-25 09:09 | 48.52988 | 21.19373 | 3189 ft | 236 kts | 10° |
| 2026-04-25 09:09 | 48.54570 | 21.19963 | 2834 ft | 231 kts | 13° |
| 2026-04-25 09:09 | 48.56079 | 21.20540 | 2525 ft | 215 kts | 12° |
| 2026-04-25 09:10 | 48.57469 | 21.21025 | 2265 ft | 197 kts | 12° |
| 2026-04-25 09:10 | 48.58762 | 21.21476 | 2005 ft | 184 kts | 12° |
| 2026-04-25 09:10 | 48.59982 | 21.21900 | 1772 ft | 175 kts | 12° |
| 2026-04-25 09:10 | 48.61167 | 21.22317 | 1529 ft | 175 kts | 13° |
| 2026-04-25 09:11 | 48.63430 | 21.23120 | 1058 ft | 161 kts | 13° |
| 2026-04-25 09:11 | 48.64481 | 21.23477 | 856 ft | 149 kts | 15° |
| 2026-04-25 09:11 | 48.65448 | 21.23819 | 757 ft | 131 kts | 12° |
| 2026-04-25 09:12 | 48.66191 | 21.24079 | 757 ft | 88 kts | 13° |
| 2026-04-25 09:12 | 48.66612 | 21.24225 | 759 ft | 44 kts | 13° |
| 2026-04-25 09:12 | 48.66896 | 21.24324 | 759 ft | 35 kts | 13° |
| 2026-04-25 09:12 | 48.67111 | 21.24400 | 758 ft | 26 kts | 13° |
| 2026-04-25 09:13 | 48.67233 | 21.24371 | 757 ft | 11 kts | 295° |
| 2026-04-25 09:13 | 48.67252 | 21.24258 | 754 ft | 11 kts | 283° |
| 2026-04-25 09:13 | 48.67229 | 21.24169 | 755 ft | 11 kts | 195° |
| 2026-04-25 09:13 | 48.67172 | 21.24140 | 755 ft | 8 kts | 217° |
| 2026-04-25 09:14 | 48.67175 | 21.24063 | 755 ft | 8 kts | 285° |
| 2026-04-25 09:14 | 48.67189 | 21.23987 | 754 ft | 7 kts | 285° |
| 2026-04-25 09:14 | 48.67202 | 21.23914 | 755 ft | 6 kts | 283° |
| 2026-04-25 09:14 | 48.67212 | 21.23862 | 754 ft | 5 kts | 294° |
| 2026-04-25 09:15 | 48.67242 | 21.23841 | 753 ft | 5 kts | 6° |
| 2026-04-25 09:15 | 48.67260 | 21.23847 | 756 ft | 2 kts | 12° |
| 2026-04-25 09:15 | 48.67265 | 21.23848 | 754 ft | 0 kts | 12° |